Time;durP1;ratioP1;P1;durP2;ratioP2;P2;SDS_P1;SDS_P2;PMS_P1;PMS_P2;Temp;Humidity;BMP_temperature;BMP_pressure;BME280_temperature;BME280_humidity;BME280_pressure;Samples;Min_cycle;Max_cycle;Signal;HPM_P1;HPM_P2
2023/04/07 00:01:02;;;;;;;;;;;;;;;13.32;61.42;100367.78;4948757;28;8997;-85
2023/04/07 00:03:27;;;;;;;;;;;;;;;13.32;61.36;100372.91;4925250;28;7113;-85
2023/04/07 00:05:53;;;;;;;;;;;;;;;13.31;61.54;100371.16;4951257;28;8417;-84
2023/04/07 00:08:19;;;;;;;;;;;;;;;13.31;60.70;100376.31;4968096;28;8502;-84
2023/04/07 00:10:45;;;;;;;;;;;;;;;13.29;60.98;100372.81;4956840;28;8436;-85
2023/04/07 00:13:11;;;;;;;;;;;;;;;13.28;61.32;100371.06;4943435;28;8488;-85
2023/04/07 00:15:37;;;;;;;;;;;;;;;13.25;61.83;100376.13;4968405;28;8374;-85
2023/04/07 00:18:03;;;;;;;;;;;;;;;13.24;61.31;100370.06;4960672;28;6948;-85
2023/04/07 00:20:28;;;;;;;;;;;;;;;13.22;61.05;100370.81;4967991;28;6803;-85
2023/04/07 00:22:54;;;;;;;;;;;;;;;13.20;61.32;100376.81;4920042;28;8492;-84
2023/04/07 00:25:20;;;;;;;;;;;;;;;13.19;60.91;100371.63;4940427;28;6796;-85
2023/04/07 00:27:45;;;;;;;;;;;;;;;13.18;61.04;100377.56;4951859;28;8648;-85
2023/04/07 00:30:11;;;;;;;;;;;;;;;13.17;61.11;100371.56;4922027;28;8520;-85
2023/04/07 00:32:37;;;;;;;;;;;;;;;13.14;61.44;100365.41;4951838;28;8349;-85
2023/04/07 00:35:03;;;;;;;;;;;;;;;13.13;61.53;100366.22;4952394;28;8464;-84
2023/04/07 00:37:29;;;;;;;;;;;;;;;13.13;61.43;100366.22;4965428;28;6893;-85
2023/04/07 00:39:56;;;;;;;;;;;;;;;13.11;61.42;100371.31;4938510;28;8750;-85
2023/04/07 00:42:21;;;;;;;;;;;;;;;13.09;61.82;100367.81;4967659;28;8480;-84
2023/04/07 00:44:47;;;;;;;;;;;;;;;13.08;61.47;100370.31;4949174;28;6776;-85
2023/04/07 00:47:14;;;;;;;;;;;;;;;13.05;61.81;100364.25;4950587;28;8720;-85
2023/04/07 00:49:40;;;;;;;;;;;;;;;13.05;61.16;100369.38;4954629;28;8503;-85
2023/04/07 00:52:10;;;;;;;;;;;;;;;13.04;61.53;100371.94;4941196;28;8376;-85
2023/04/07 00:54:37;;;;;;;;;;;;;;;13.01;61.21;100364.97;4949128;28;8518;-85
2023/04/07 00:57:04;;;;;;;;;;;;;;;13.02;61.40;100368.41;4963769;28;6958;-85
2023/04/07 00:59:31;;;;;;;;;;;;;;;13.00;61.01;100360.63;4964845;28;7250;-85
2023/04/07 01:02:32;;;;;;;;;;;;;;;13.00;61.19;100364.91;4953442;28;9122;-85
2023/04/07 01:05:17;;;;;;;;;;;;;;;12.98;61.54;100366.53;4950050;28;8719;-85
2023/04/07 01:08:06;;;;;;;;;;;;;;;13.00;61.90;100367.47;4948275;28;8450;-86
2023/04/07 01:11:05;;;;;;;;;;;;;;;13.00;61.57;100370.94;4963358;28;7394;-85
2023/04/07 01:13:42;;;;;;;;;;;;;;;13.02;61.68;100365.81;4963826;28;6828;-86
2023/04/07 01:16:18;;;;;;;;;;;;;;;13.05;61.25;100371.97;4965852;28;8490;-86
2023/04/07 01:18:49;;;;;;;;;;;;;;;13.08;61.10;100358.34;4952352;28;8435;-85
2023/04/07 01:21:18;;;;;;;;;;;;;;;13.11;61.01;100362.72;4940689;28;8492;-85
2023/04/07 01:24:12;;;;;;;;;;;;;;;13.14;62.15;100363.72;4970745;28;6967;-85
2023/04/07 01:26:39;;;;;;;;;;;;;;;13.14;61.43;100362.84;4969326;28;7182;-84
2023/04/07 01:29:36;;;;;;;;;;;;;;;13.15;61.24;100365.47;4944431;28;8561;-85
2023/04/07 01:32:08;;;;;;;;;;;;;;;13.15;61.28;100364.59;4968438;28;7796;-85
2023/04/07 01:34:37;;;;;;;;;;;;;;;13.18;61.60;100370.72;4965179;28;6967;-85
2023/04/07 01:37:05;;;;;;;;;;;;;;;13.21;61.00;100375.13;4954576;28;8432;-84
2023/04/07 01:39:34;;;;;;;;;;;;;;;13.23;61.78;100377.72;4944172;28;8448;-84
2023/04/07 01:42:02;;;;;;;;;;;;;;;13.24;61.35;100379.50;4959173;28;8448;-85
2023/04/07 01:44:31;;;;;;;;;;;;;;;13.26;61.37;100383.88;4959332;28;8378;-85
2023/04/07 01:46:58;;;;;;;;;;;;;;;13.27;61.52;100380.47;4944801;28;8879;-85
2023/04/07 01:49:26;;;;;;;;;;;;;;;13.28;61.47;100376.22;4942843;28;8723;-85
2023/04/07 01:51:53;;;;;;;;;;;;;;;13.25;61.44;100376.13;4967782;28;6965;-85
2023/04/07 01:54:20;;;;;;;;;;;;;;;13.24;61.54;100374.38;4965905;28;6938;-85
2023/04/07 01:56:46;;;;;;;;;;;;;;;13.18;61.51;100375.88;4967489;28;7142;-85
2023/04/07 01:59:12;;;;;;;;;;;;;;;13.15;60.70;100368.06;4951779;28;6948;-85
2023/04/07 02:01:38;;;;;;;;;;;;;;;13.12;60.96;100378.22;4950301;28;8446;-85
2023/04/07 02:04:14;;;;;;;;;;;;;;;13.10;61.84;100374.72;4970385;28;6859;-85
2023/04/07 02:06:51;;;;;;;;;;;;;;;13.08;61.55;100378.03;4968005;28;7019;-85
2023/04/07 02:09:21;;;;;;;;;;;;;;;13.07;61.99;100377.19;4943598;28;8653;-85
2023/04/07 02:11:52;;;;;;;;;;;;;;;13.08;61.09;100373.78;4969116;28;7267;-85
2023/04/07 02:14:21;;;;;;;;;;;;;;;13.10;61.30;100379.00;4951972;28;6812;-85
2023/04/07 02:16:48;;;;;;;;;;;;;;;13.08;61.48;100378.94;4953163;28;8388;-85
2023/04/07 02:19:14;;;;;;;;;;;;;;;13.06;61.30;100378.84;4973855;28;7685;-85
2023/04/07 02:21:43;;;;;;;;;;;;;;;13.07;61.13;100379.75;4953271;28;8401;-85
2023/04/07 02:24:11;;;;;;;;;;;;;;;13.06;61.24;100380.56;4970250;28;6902;-85
2023/04/07 02:26:36;;;;;;;;;;;;;;;13.07;61.31;100384.91;4952635;28;6996;-85
2023/04/07 02:29:03;;;;;;;;;;;;;;;13.05;61.25;100381.41;4953467;28;9001;-85
2023/04/07 02:31:31;;;;;;;;;;;;;;;13.03;61.08;100383.91;4957338;28;8449;-85
2023/04/07 02:33:56;;;;;;;;;;;;;;;13.02;61.62;100381.25;4967084;28;6808;-84
2023/04/07 02:36:22;;;;;;;;;;;;;;;13.02;60.96;100381.25;4949836;28;6977;-85
2023/04/07 02:38:48;;;;;;;;;;;;;;;13.00;61.73;100383.78;4962736;28;7694;-85
2023/04/07 02:41:14;;;;;;;;;;;;;;;13.01;61.08;100382.09;4966410;28;6916;-85
2023/04/07 02:43:39;;;;;;;;;;;;;;;13.02;61.01;100388.97;4936899;28;8471;-85
2023/04/07 02:46:05;;;;;;;;;;;;;;;13.02;61.90;100378.69;4952190;28;8635;-85
2023/04/07 02:48:31;;;;;;;;;;;;;;;13.02;61.38;100388.97;4956184;28;8405;-85
2023/04/07 02:50:57;;;;;;;;;;;;;;;13.02;61.72;100383.84;4971462;28;7043;-85
2023/04/07 02:53:23;;;;;;;;;;;;;;;13.03;61.32;100383.91;4970432;28;6804;-85
2023/04/07 02:55:49;;;;;;;;;;;;;;;13.05;61.74;100384.84;4948793;28;8531;-85
2023/04/07 02:58:15;;;;;;;;;;;;;;;13.08;61.88;100383.19;4969715;28;8767;-84
2023/04/07 03:00:40;;;;;;;;;;;;;;;13.09;60.87;100384.97;4965405;28;6921;-85
2023/04/07 03:03:06;;;;;;;;;;;;;;;13.11;61.14;100386.75;4951393;28;8552;-84
2023/04/07 03:05:32;;;;;;;;;;;;;;;13.13;61.27;100385.09;4958146;28;8667;-84
2023/04/07 03:07:57;;;;;;;;;;;;;;;13.12;61.91;100390.22;4971355;28;8337;-84
2023/04/07 03:10:23;;;;;;;;;;;;;;;13.11;61.41;100384.19;4971663;28;6761;-84
2023/04/07 03:12:49;;;;;;;;;;;;;;;13.10;61.03;100385.00;4969502;28;7281;-84
2023/04/07 03:15:15;;;;;;;;;;;;;;;13.09;60.91;100388.41;4940189;28;9058;-84
2023/04/07 03:17:40;;;;;;;;;;;;;;;13.09;61.44;100392.69;4936670;28;8497;-84
2023/04/07 03:20:07;;;;;;;;;;;;;;;13.06;61.58;100390.88;4958848;28;6796;-84
2023/04/07 03:22:32;;;;;;;;;;;;;;;13.05;61.30;100391.69;4968512;28;6962;-85
2023/04/07 03:24:58;;;;;;;;;;;;;;;13.03;61.44;100395.88;4956956;28;8501;-84
2023/04/07 03:27:24;;;;;;;;;;;;;;;13.01;60.49;100392.38;4959162;28;8962;-84
2023/04/07 03:29:52;;;;;;;;;;;;;;;13.01;60.97;100402.66;4968398;28;6852;-84
2023/04/07 03:32:18;;;;;;;;;;;;;;;13.00;61.56;100396.66;4971341;28;6996;-84
2023/04/07 03:34:43;;;;;;;;;;;;;;;13.00;61.32;100396.66;4941237;28;8522;-84
2023/04/07 03:37:09;;;;;;;;;;;;;;;13.01;61.69;100397.53;4963916;28;6860;-84
2023/04/07 03:39:36;;;;;;;;;;;;;;;13.00;61.15;100400.91;4966342;28;6958;-84
2023/04/07 03:42:02;;;;;;;;;;;;;;;12.98;61.26;100397.41;4959818;28;8437;-84
2023/04/07 03:44:28;;;;;;;;;;;;;;;12.97;61.04;100400.81;4964305;28;7214;-84
2023/04/07 03:46:54;;;;;;;;;;;;;;;12.94;60.91;100400.66;4965460;28;8547;-84
2023/04/07 03:49:19;;;;;;;;;;;;;;;12.92;60.83;100398.06;4938692;28;8621;-83
2023/04/07 03:51:45;;;;;;;;;;;;;;;12.91;61.04;100396.31;4964157;28;6938;-83
2023/04/07 03:54:11;;;;;;;;;;;;;;;12.91;60.85;100398.88;4944434;28;8561;-84
2023/04/07 03:56:37;;;;;;;;;;;;;;;12.91;60.77;100407.47;4952718;28;8705;-83
2023/04/07 03:59:02;;;;;;;;;;;;;;;12.91;61.35;100410.03;4948988;28;8426;-84
2023/04/07 04:01:28;;;;;;;;;;;;;;;12.91;61.01;100401.44;4939899;28;8437;-84
2023/04/07 04:03:54;;;;;;;;;;;;;;;12.91;61.59;100406.59;4965577;28;6780;-84
2023/04/07 04:06:19;;;;;;;;;;;;;;;12.92;60.96;100406.63;4963081;28;7034;-84
2023/04/07 04:08:45;;;;;;;;;;;;;;;12.91;61.45;100406.59;4967427;28;7072;-84
2023/04/07 04:11:11;;;;;;;;;;;;;;;12.94;61.64;100410.97;4968905;28;7258;-84
2023/04/07 04:13:37;;;;;;;;;;;;;;;12.93;60.74;100407.53;4962285;28;6797;-84
2023/04/07 04:16:03;;;;;;;;;;;;;;;12.95;61.35;100405.03;4968478;28;7066;-83
2023/04/07 04:18:28;;;;;;;;;;;;;;;12.94;60.87;100403.25;4959127;28;7214;-84
2023/04/07 04:20:54;;;;;;;;;;;;;;;12.96;61.07;100410.22;4962971;28;7217;-84
2023/04/07 04:23:21;;;;;;;;;;;;;;;12.96;60.89;100414.50;4939086;28;8597;-84
2023/04/07 04:25:46;;;;;;;;;;;;;;;12.96;61.44;100420.50;4961683;28;7260;-84
2023/04/07 04:28:12;;;;;;;;;;;;;;;12.96;60.97;100419.63;4951163;28;8423;-85
2023/04/07 04:30:37;;;;;;;;;;;;;;;12.96;60.87;100414.50;4950717;28;8761;-84
2023/04/07 04:33:03;;;;;;;;;;;;;;;12.95;60.87;100420.47;4963411;28;7075;-84
2023/04/07 04:35:29;;;;;;;;;;;;;;;12.94;60.83;100426.38;4960152;28;8500;-84
2023/04/07 04:37:54;;;;;;;;;;;;;;;12.92;60.77;100421.22;4953354;28;8513;-84
2023/04/07 04:40:20;;;;;;;;;;;;;;;12.89;61.18;100424.53;4957263;28;6792;-84
2023/04/07 04:42:46;;;;;;;;;;;;;;;12.87;60.57;100421.03;4964014;28;6964;-84
2023/04/07 04:45:11;;;;;;;;;;;;;;;12.86;61.30;100428.69;4965779;28;7098;-85
2023/04/07 04:47:37;;;;;;;;;;;;;;;12.86;61.36;100432.13;4963702;28;6828;-85
2023/04/07 04:50:05;;;;;;;;;;;;;;;12.86;60.93;100424.44;4964888;28;8811;-84
2023/04/07 04:52:31;;;;;;;;;;;;;;;12.84;60.58;100441.47;4962687;28;7121;-85
2023/04/07 04:54:57;;;;;;;;;;;;;;;12.82;61.14;100432.81;4952072;28;8517;-84
2023/04/07 04:57:23;;;;;;;;;;;;;;;12.80;60.60;100447.31;4960801;28;7169;-84
2023/04/07 04:59:48;;;;;;;;;;;;;;;12.76;61.10;100440.31;4970384;28;6803;-84
2023/04/07 05:02:14;;;;;;;;;;;;;;;12.73;60.70;100442.75;4967080;28;6776;-84
2023/04/07 05:04:40;;;;;;;;;;;;;;;12.71;61.44;100445.28;4966347;28;7307;-84
2023/04/07 05:07:05;;;;;;;;;;;;;;;12.74;60.99;100453.09;4969691;28;7167;-84
2023/04/07 05:09:31;;;;;;;;;;;;;;;12.74;60.44;100449.63;4972972;28;8686;-86
2023/04/07 05:11:57;;;;;;;;;;;;;;;12.75;61.05;100465.13;4967507;28;6926;-84
2023/04/07 05:14:22;;;;;;;;;;;;;;;12.74;60.28;100459.91;4952246;28;6930;-84
2023/04/07 05:16:48;;;;;;;;;;;;;;;12.74;61.01;100459.91;4971781;28;6768;-84
2023/04/07 05:19:14;;;;;;;;;;;;;;;12.74;60.40;100459.91;4968669;28;8436;-84
2023/04/07 05:21:40;;;;;;;;;;;;;;;12.73;60.69;100460.75;4954895;28;8417;-84
2023/04/07 05:24:05;;;;;;;;;;;;;;;12.73;60.79;100464.22;4961213;28;7062;-85
2023/04/07 05:26:32;;;;;;;;;;;;;;;12.72;60.89;100459.88;4973147;28;7041;-84
2023/04/07 05:28:58;;;;;;;;;;;;;;;12.74;60.90;100460.81;4959404;28;8444;-84
2023/04/07 05:31:24;;;;;;;;;;;;;;;12.75;61.15;100467.72;4965358;28;7177;-84
2023/04/07 05:33:50;;;;;;;;;;;;;;;12.76;60.92;100471.19;4967890;28;8571;-84
2023/04/07 05:36:15;;;;;;;;;;;;;;;12.75;60.90;100451.41;4965872;28;6870;-84
2023/04/07 05:38:41;;;;;;;;;;;;;;;12.77;60.94;100471.22;4969090;28;8135;-84
2023/04/07 05:41:07;;;;;;;;;;;;;;;12.78;60.50;100466.97;4952557;28;6941;-84
2023/04/07 05:43:32;;;;;;;;;;;;;;;12.77;60.09;100465.22;4956160;28;8520;-84
2023/04/07 05:45:58;;;;;;;;;;;;;;;12.78;60.82;100477.25;4925486;28;7485;-84
2023/04/07 05:48:23;;;;;;;;;;;;;;;12.78;60.21;100474.69;4950706;28;8537;-84
2023/04/07 05:50:50;;;;;;;;;;;;;;;12.77;60.55;100476.34;4929055;28;8692;-84
2023/04/07 05:53:15;;;;;;;;;;;;;;;12.76;60.79;100472.03;4953047;28;6793;-83
2023/04/07 05:55:42;;;;;;;;;;;;;;;12.78;60.52;100477.25;4970147;28;7444;-84
2023/04/07 05:58:08;;;;;;;;;;;;;;;12.79;60.26;100476.44;4945712;28;7314;-84
2023/04/07 06:00:33;;;;;;;;;;;;;;;12.78;60.25;100475.53;4955350;28;8364;-84
2023/04/07 06:03:00;;;;;;;;;;;;;;;12.80;60.10;100483.31;4942232;28;8659;-84
2023/04/07 06:05:26;;;;;;;;;;;;;;;12.80;60.52;100478.19;4953094;28;7246;-85
2023/04/07 06:07:53;;;;;;;;;;;;;;;12.80;60.21;100485.91;4950644;28;6965;-84
2023/04/07 06:10:19;;;;;;;;;;;;;;;12.76;59.99;100487.47;4959042;28;7509;-84
2023/04/07 06:12:44;;;;;;;;;;;;;;;12.79;60.17;100491.88;4948157;28;8415;-84
2023/04/07 06:15:11;;;;;;;;;;;;;;;12.80;60.55;100496.19;4940109;28;8443;-84
2023/04/07 06:17:37;;;;;;;;;;;;;;;12.78;60.89;100497.81;4967083;28;6971;-84
2023/04/07 06:20:03;;;;;;;;;;;;;;;12.81;60.48;100499.66;4953313;28;8465;-83
2023/04/07 06:22:28;;;;;;;;;;;;;;;12.80;60.72;100506.47;4949674;28;8611;-83
2023/04/07 06:24:54;;;;;;;;;;;;;;;12.83;60.68;100511.72;4955753;28;8708;-82
2023/04/07 06:27:21;;;;;;;;;;;;;;;12.83;60.68;100509.16;4936303;28;8364;-83
2023/04/07 06:29:46;;;;;;;;;;;;;;;12.84;60.31;100515.19;4955674;28;7249;-84
2023/04/07 06:32:12;;;;;;;;;;;;;;;12.87;60.41;100518.78;4958908;28;8440;-83
2023/04/07 06:34:38;;;;;;;;;;;;;;;12.87;59.82;100516.22;4966036;28;7262;-83
2023/04/07 06:37:05;;;;;;;;;;;;;;;12.87;59.98;100513.63;4949428;28;7171;-85
2023/04/07 06:39:31;;;;;;;;;;;;;;;12.88;59.61;100522.22;4937930;28;8766;-83
2023/04/07 06:41:57;;;;;;;;;;;;;;;12.89;60.10;100526.53;4962594;28;6858;-82
2023/04/07 06:44:22;;;;;;;;;;;;;;;12.89;60.25;100523.97;4965774;28;6784;-84
2023/04/07 06:46:52;;;;;;;;;;;;;;;12.89;60.50;100527.44;4958397;28;6941;-85
2023/04/07 06:49:41;;;;;;;;;;;;;;;12.90;60.75;100533.47;4927706;28;8717;-84
2023/04/07 06:52:07;;;;;;;;;;;;;;;12.92;60.69;100531.81;4936194;28;8486;-84
2023/04/07 06:54:33;;;;;;;;;;;;;;;12.90;60.17;100536.03;4940916;28;8388;-84
2023/04/07 06:56:58;;;;;;;;;;;;;;;12.89;60.05;100536.81;4965469;28;6959;-84
2023/04/07 06:59:24;;;;;;;;;;;;;;;12.86;60.35;100542.75;4967001;28;7160;-86
2023/04/07 07:01:50;;;;;;;;;;;;;;;12.86;60.49;100542.75;4947557;28;9149;-84
2023/04/07 07:04:15;;;;;;;;;;;;;;;12.85;60.19;100541.00;4964267;28;6848;-85
2023/04/07 07:06:41;;;;;;;;;;;;;;;12.85;59.86;100543.56;4947313;28;9542;-84
2023/04/07 07:09:06;;;;;;;;;;;;;;;12.89;60.71;100548.00;4961607;28;7158;-84
2023/04/07 07:11:32;;;;;;;;;;;;;;;12.91;60.53;100551.50;4945793;28;8452;-84
2023/04/07 07:13:58;;;;;;;;;;;;;;;12.94;60.46;100549.88;4939710;28;6785;-85
2023/04/07 07:16:23;;;;;;;;;;;;;;;12.95;60.47;100542.22;4949267;28;8361;-84
2023/04/07 07:18:50;;;;;;;;;;;;;;;13.01;60.66;100551.88;4968261;28;6796;-86
2023/04/07 07:21:17;;;;;;;;;;;;;;;13.06;59.81;100548.69;4964278;28;7332;-80
2023/04/07 07:23:43;;;;;;;;;;;;;;;13.11;60.60;100554.00;4970088;28;6800;-80
2023/04/07 07:26:09;;;;;;;;;;;;;;;13.16;60.43;100557.66;4947128;28;8471;-85
2023/04/07 07:28:35;;;;;;;;;;;;;;;13.22;60.38;100557.03;4951494;28;8455;-86
2023/04/07 07:31:09;;;;;;;;;;;;;;;13.28;59.69;100566.69;4940646;28;7134;-85
2023/04/07 07:33:35;;;;;;;;;;;;;;;13.34;59.92;100567.78;4955716;28;8424;-85
2023/04/07 07:36:00;;;;;;;;;;;;;;;13.40;59.79;100571.44;4942663;28;7158;-84
2023/04/07 07:38:26;;;;;;;;;;;;;;;13.43;59.96;100571.56;4932237;28;7187;-84
2023/04/07 07:40:52;;;;;;;;;;;;;;;13.46;59.97;100566.53;4939351;28;7185;-85
2023/04/07 07:43:18;;;;;;;;;;;;;;;13.50;60.24;100572.69;4925353;28;8551;-85
2023/04/07 07:45:45;;;;;;;;;;;;;;;13.55;59.87;100576.34;4945075;28;8414;-85
2023/04/07 07:48:10;;;;;;;;;;;;;;;13.59;59.38;100576.53;4951313;28;7329;-85
2023/04/07 07:50:36;;;;;;;;;;;;;;;13.61;59.81;100580.03;4966261;28;7173;-84
2023/04/07 07:53:02;;;;;;;;;;;;;;;13.64;59.67;100576.69;4949732;28;8429;-84
2023/04/07 07:55:27;;;;;;;;;;;;;;;13.69;59.37;100574.28;4949923;28;7181;-86
2023/04/07 07:57:53;;;;;;;;;;;;;;;13.71;59.54;100575.22;4948211;28;8456;-85
2023/04/07 08:00:19;;;;;;;;;;;;;;;13.78;59.94;100576.31;4941034;28;8384;-84
2023/04/07 08:02:45;;;;;;;;;;;;;;;13.86;59.03;100575.81;4951440;28;8390;-84
2023/04/07 08:05:11;;;;;;;;;;;;;;;13.91;58.84;100583.72;4953565;28;7075;-86
2023/04/07 08:07:37;;;;;;;;;;;;;;;13.93;58.72;100589.78;4946190;28;7159;-83
2023/04/07 08:10:03;;;;;;;;;;;;;;;13.91;58.97;100587.97;4949576;28;8405;-83
2023/04/07 08:12:29;;;;;;;;;;;;;;;13.86;58.26;100599.00;4952680;28;8451;-83
2023/04/07 08:14:55;;;;;;;;;;;;;;;13.82;58.88;100591.09;4962566;28;7203;-83
2023/04/07 08:17:20;;;;;;;;;;;;;;;13.78;58.44;100594.38;4951036;28;8383;-83
2023/04/07 08:19:46;;;;;;;;;;;;;;;13.80;58.29;100603.03;4967150;28;7241;-82
2023/04/07 08:22:12;;;;;;;;;;;;;;;13.81;58.67;100599.63;4963105;28;6779;-82
2023/04/07 08:24:37;;;;;;;;;;;;;;;13.87;58.89;100597.28;4952641;28;8352;-83
2023/04/07 08:27:03;;;;;;;;;;;;;;;13.95;59.13;100597.56;4963863;28;7187;-83
2023/04/07 08:29:29;;;;;;;;;;;;;;;14.06;59.18;100600.56;4966671;28;6962;-83
2023/04/07 08:31:54;;;;;;;;;;;;;;;14.20;59.01;100603.63;4940722;28;8691;-84
2023/04/07 08:34:20;;;;;;;;;;;;;;;14.35;59.42;100601.63;4930193;28;6979;-84
2023/04/07 08:36:46;;;;;;;;;;;;;;;14.45;58.81;100605.38;4969033;28;7182;-83
2023/04/07 08:39:12;;;;;;;;;;;;;;;14.53;58.05;100613.38;4947669;28;8399;-85
2023/04/07 08:41:41;;;;;;;;;;;;;;;14.55;58.04;100607.47;4954199;28;6991;-84
2023/04/07 08:44:10;;;;;;;;;;;;;;;14.57;58.04;100616.13;4945257;28;6972;-84
2023/04/07 08:46:40;;;;;;;;;;;;;;;14.63;58.13;100610.34;4963497;28;7191;-85
2023/04/07 08:49:12;;;;;;;;;;;;;;;14.74;57.98;100615.03;4941830;28;6808;-83
2023/04/07 08:51:46;;;;;;;;;;;;;;;14.88;58.27;100620.66;4950873;28;7396;-83
2023/04/07 08:54:17;;;;;;;;;;;;;;;14.97;57.90;100618.38;4943228;28;7248;-82
2023/04/07 08:56:44;;;;;;;;;;;;;;;15.05;57.16;100622.06;4944120;28;10120;-83
2023/04/07 08:59:13;;;;;;;;;;;;;;;15.10;56.94;100622.22;4949828;28;7228;-83
2023/04/07 09:01:39;;;;;;;;;;;;;;;15.14;57.44;100622.38;4939872;28;8409;-82
2023/04/07 09:04:08;;;;;;;;;;;;;;;15.21;57.52;100620.00;4942845;28;7278;-83
2023/04/07 09:06:37;;;;;;;;;;;;;;;15.32;57.47;100623.81;4932662;28;6836;-85
2023/04/07 09:09:06;;;;;;;;;;;;;;;15.46;57.21;100626.81;4940063;28;7307;-86
2023/04/07 09:11:38;;;;;;;;;;;;;;;15.53;57.39;100617.56;4966709;28;7207;-82
2023/04/07 09:14:06;;;;;;;;;;;;;;;15.61;56.71;100621.25;4948599;28;6995;-83
2023/04/07 09:16:33;;;;;;;;;;;;;;;15.60;56.11;100621.22;4950040;28;7441;-84
2023/04/07 09:18:58;;;;;;;;;;;;;;;15.63;56.02;100629.94;4949732;28;8360;-86
2023/04/07 09:21:26;;;;;;;;;;;;;;;15.64;56.00;100626.50;4963321;28;7173;-83
2023/04/07 09:23:52;;;;;;;;;;;;;;;15.64;55.50;100625.66;4962744;28;6966;-85
2023/04/07 09:26:19;;;;;;;;;;;;;;;15.62;55.44;100632.47;4939372;28;8388;-85
2023/04/07 09:28:54;;;;;;;;;;;;;;;15.63;55.42;100636.81;4948409;28;8651;-84
2023/04/07 09:31:45;;;;;;;;;;;;;;;15.62;54.75;100633.34;4943254;28;6984;-84
2023/04/07 09:34:31;;;;;;;;;;;;;;;15.58;55.37;100636.69;4947056;28;8440;-86
2023/04/07 09:36:58;;;;;;;;;;;;;;;15.49;54.92;100631.22;4943345;28;7261;-81
2023/04/07 09:39:25;;;;;;;;;;;;;;;15.38;54.89;100638.63;4966338;28;6796;-82
2023/04/07 09:41:51;;;;;;;;;;;;;;;15.31;54.76;100634.97;4943982;28;6796;-84
2023/04/07 09:44:19;;;;;;;;;;;;;;;15.26;55.14;100629.66;4960476;28;6800;-84
2023/04/07 09:46:56;;;;;;;;;;;;;;;15.24;55.36;100630.41;4948388;28;7245;-83
2023/04/07 09:49:24;;;;;;;;;;;;;;;15.19;55.10;100632.00;4966251;28;8750;-82
2023/04/07 09:52:06;;;;;;;;;;;;;;;15.18;54.84;100640.56;4969197;28;7198;-83
2023/04/07 09:54:41;;;;;;;;;;;;;;;15.11;54.84;100636.88;4948074;28;8472;-83
2023/04/07 09:57:11;;;;;;;;;;;;;;;15.01;54.24;100643.44;4942274;28;8506;-82
2023/04/07 09:59:43;;;;;;;;;;;;;;;14.88;54.73;100642.16;4941359;28;8476;-82
2023/04/07 10:02:12;;;;;;;;;;;;;;;14.79;54.82;100637.56;4960279;28;6996;-83
2023/04/07 10:04:39;;;;;;;;;;;;;;;14.78;55.05;100640.97;4947724;28;8561;-83
2023/04/07 10:07:05;;;;;;;;;;;;;;;14.83;55.45;100639.41;4956758;28;8833;-86
2023/04/07 10:09:31;;;;;;;;;;;;;;;14.94;55.19;100649.22;4963891;28;7145;-83
2023/04/07 10:11:58;;;;;;;;;;;;;;;15.06;55.71;100635.88;4948863;28;8792;-83
2023/04/07 10:14:30;;;;;;;;;;;;;;;15.20;55.10;100649.22;4951820;28;7152;-83
2023/04/07 10:17:00;;;;;;;;;;;;;;;15.28;54.76;100647.78;4951080;28;6966;-83
2023/04/07 10:19:33;;;;;;;;;;;;;;;15.31;54.53;100647.88;4965251;28;7066;-83
2023/04/07 10:22:04;;;;;;;;;;;;;;;15.34;54.83;100653.13;4966478;28;6808;-86
2023/04/07 10:24:48;;;;;;;;;;;;;;;15.33;54.23;100645.34;4927530;28;8613;-83
2023/04/07 10:27:20;;;;;;;;;;;;;;;15.35;55.00;100649.72;4960543;28;6812;-85
2023/04/07 10:29:50;;;;;;;;;;;;;;;15.38;54.25;100651.53;4955427;28;7150;-87
2023/04/07 10:32:16;;;;;;;;;;;;;;;15.36;54.11;100653.19;4963256;28;8429;-90
2023/04/07 10:34:53;;;;;;;;;;;;;;;15.33;54.64;100648.78;4963525;28;7262;-88
2023/04/07 10:37:21;;;;;;;;;;;;;;;15.38;54.48;100661.84;4961152;28;8691;-90
2023/04/07 10:40:18;;;;;;;;;;;;;;;15.51;54.34;100660.56;4958174;28;8452;-88
2023/04/07 10:42:47;;;;;;;;;;;;;;;15.66;54.52;100660.16;4980877;28;8508;-90
2023/04/07 10:45:13;;;;;;;;;;;;;;;15.86;54.59;100652.13;4965113;28;7018;-89
2023/04/07 10:48:13;;;;;;;;;;;;;;;16.14;54.85;100656.47;4964353;28;7153;-89
2023/04/07 10:50:39;;;;;;;;;;;;;;;16.39;54.20;100654.56;4961343;28;7317;-88
2023/04/07 10:53:08;;;;;;;;;;;;;;;16.61;54.11;100655.16;4978128;28;7135;-89
2023/04/07 10:55:43;;;;;;;;;;;;;;;16.77;53.56;100657.34;4947063;28;8520;-89
2023/04/07 10:58:24;;;;;;;;;;;;;;;16.82;52.77;100665.22;4968862;28;7564;-88
2023/04/07 11:00:59;;;;;;;;;;;;;;;16.85;52.39;100664.44;4980721;28;7209;-89
2023/04/07 11:03:26;;;;;;;;;;;;;;;16.86;51.73;100655.84;4954051;28;6998;-89
2023/04/07 11:05:52;;;;;;;;;;;;;;;16.90;51.71;100655.06;4975795;28;7165;-89
2023/04/07 11:08:45;;;;;;;;;;;;;;;16.97;51.58;100651.81;4964255;28;8379;-89
2023/04/07 11:11:33;;;;;;;;;;;;;;;17.02;51.26;100658.03;4963230;28;6993;-89
2023/04/07 11:13:58;;;;;;;;;;;;;;;17.12;50.34;100659.13;4957536;28;7232;-89
2023/04/07 11:16:42;;;;;;;;;;;;;;;17.18;51.06;100658.38;4965299;28;8347;-89
2023/04/07 11:19:10;;;;;;;;;;;;;;;17.28;50.90;100660.38;4939242;28;8460;-89
2023/04/07 11:21:35;;;;;;;;;;;;;;;17.34;49.83;100664.84;4963373;28;8497;-89
2023/04/07 11:24:01;;;;;;;;;;;;;;;17.37;50.32;100664.03;4980873;28;7183;-88
2023/04/07 11:26:27;;;;;;;;;;;;;;;17.38;49.72;100664.06;4963548;28;8600;-90
2023/04/07 11:28:54;;;;;;;;;;;;;;;17.34;49.46;100665.72;4958179;28;8378;-89
2023/04/07 11:31:25;;;;;;;;;;;;;;;17.29;49.33;100671.63;4975161;28;6867;-89
2023/04/07 11:33:58;;;;;;;;;;;;;;;17.23;49.53;100671.47;4969419;28;7171;-90
2023/04/07 11:36:37;;;;;;;;;;;;;;;17.13;49.01;100660.88;4972249;28;7300;-89
2023/04/07 11:39:03;;;;;;;;;;;;;;;17.07;49.35;100666.78;4980936;28;7201;-88
2023/04/07 11:41:32;;;;;;;;;;;;;;;17.00;49.19;100677.81;4963168;28;7157;-89
2023/04/07 11:44:10;;;;;;;;;;;;;;;16.92;49.54;100677.56;4951934;28;8355;-90
2023/04/07 11:46:58;;;;;;;;;;;;;;;16.79;49.50;100685.84;4981085;28;6848;-89
2023/04/07 11:49:27;;;;;;;;;;;;;;;16.72;49.80;100684.81;4966688;28;8671;-89
2023/04/07 11:52:06;;;;;;;;;;;;;;;16.73;49.59;100688.28;4967524;28;8521;-89
2023/04/07 11:54:46;;;;;;;;;;;;;;;16.77;49.51;100690.97;4970526;28;8655;-88
2023/04/07 11:57:13;;;;;;;;;;;;;;;16.86;49.58;100685.19;4940720;28;6841;-89
2023/04/07 11:59:40;;;;;;;;;;;;;;;16.96;49.76;100688.88;4975682;28;7182;-88
2023/04/07 12:02:06;;;;;;;;;;;;;;;17.01;49.43;100682.16;4975751;28;7143;-89
2023/04/07 12:04:35;;;;;;;;;;;;;;;17.15;49.94;100692.88;4969799;28;8455;-90
2023/04/07 12:07:10;;;;;;;;;;;;;;;17.33;49.65;100692.47;4968887;28;8628;-89
2023/04/07 12:09:37;;;;;;;;;;;;;;;17.47;49.05;100697.97;4966533;28;6993;-89
2023/04/07 12:12:06;;;;;;;;;;;;;;;17.57;49.00;100693.03;4985973;28;8446;-88
2023/04/07 12:14:33;;;;;;;;;;;;;;;17.62;48.49;100700.06;4977435;28;8452;-89
2023/04/07 12:17:02;;;;;;;;;;;;;;;17.69;48.32;100700.22;4969471;28;8824;-88
2023/04/07 12:19:31;;;;;;;;;;;;;;;17.68;48.04;100701.06;4977336;28;8512;-89
2023/04/07 12:21:57;;;;;;;;;;;;;;;17.63;47.54;100695.78;4955206;28;7557;-90
2023/04/07 12:24:23;;;;;;;;;;;;;;;17.56;48.05;100707.69;4975471;28;8915;-88
2023/04/07 12:26:48;;;;;;;;;;;;;;;17.44;47.18;100710.88;4969620;28;6951;-88
2023/04/07 12:29:18;;;;;;;;;;;;;;;17.25;47.38;100713.84;4987885;28;6764;-88
2023/04/07 12:31:45;;;;;;;;;;;;;;;17.01;47.84;100728.78;4985529;28;6966;-88
2023/04/07 12:34:11;;;;;;;;;;;;;;;16.76;47.21;100716.84;4986030;28;6792;-89
2023/04/07 12:36:36;;;;;;;;;;;;;;;16.55;47.85;100727.47;4977145;28;6955;-89
2023/04/07 12:39:02;;;;;;;;;;;;;;;16.30;48.15;100725.03;4976830;28;8409;-89
2023/04/07 12:41:28;;;;;;;;;;;;;;;16.10;48.21;100721.84;4987200;28;8636;-88
2023/04/07 12:43:53;;;;;;;;;;;;;;;15.93;48.43;100731.66;4974013;28;8370;-88
2023/04/07 12:46:20;;;;;;;;;;;;;;;15.77;49.02;100730.28;4977928;28;8335;-88
2023/04/07 12:48:46;;;;;;;;;;;;;;;15.62;49.24;100728.94;4956147;28;8487;-87
2023/04/07 12:51:12;;;;;;;;;;;;;;;15.55;49.28;100739.91;4988659;28;7199;-88
2023/04/07 12:53:38;;;;;;;;;;;;;;;15.47;49.50;100731.03;4978711;28;7629;-88